Time;durP1;ratioP1;P1;durP2;ratioP2;P2;SDS_P1;SDS_P2;PMS_P1;PMS_P2;Temp;Humidity;BMP_temperature;BMP_pressure;BME280_temperature;BME280_humidity;BME280_pressure;Samples;Min_cycle;Max_cycle;Signal;HPM_P1;HPM_P2
2022/07/21 00:00:07;;;;;;;6.53;2.30;;;;;;;22.54;100.00;101330.31;2075768;28;20221;-65
2022/07/21 00:01:08;;;;;;;5.23;1.73;;;;;;;21.63;100.00;101184.25;2072801;28;20324;-65
2022/07/21 00:02:08;;;;;;;5.20;2.13;;;;;;;21.79;100.00;101222.41;2076864;28;20197;-65
2022/07/21 00:03:09;;;;;;;5.87;1.90;;;;;;;22.50;100.00;101330.53;2080449;28;20177;-65
2022/07/21 00:04:09;;;;;;;6.00;2.07;;;;;;;22.53;100.00;101331.59;2081063;28;20238;-65
2022/07/21 00:05:10;;;;;;;6.37;2.23;;;;;;;22.54;100.00;101342.38;2072363;28;20287;-65
2022/07/21 00:06:11;;;;;;;4.73;2.10;;;;;;;22.55;100.00;101329.81;2073444;28;20194;-65
2022/07/21 00:07:11;;;;;;;4.73;2.40;;;;;;;22.53;100.00;101326.72;2074064;28;20197;-65
2022/07/21 00:08:13;;;;;;;5.87;2.30;;;;;;;22.16;100.00;101280.56;2074376;28;20197;-65
2022/07/21 00:09:14;;;;;;;5.40;1.90;;;;;;;22.47;100.00;101334.34;2076569;28;20193;-65
2022/07/21 00:10:15;;;;;;;5.33;2.07;;;;;;;22.47;100.00;101330.75;2081966;28;20185;-65
2022/07/21 00:11:16;;;;;;;7.63;2.27;;;;;;;22.47;100.00;101330.75;2080967;28;20453;-65
2022/07/21 00:12:16;;;;;;;5.07;1.77;;;;;;;21.48;100.00;101172.28;2074445;28;21013;-65
2022/07/21 00:13:17;;;;;;;3.57;1.90;;;;;;;22.50;100.00;101335.38;2074512;28;20210;-65
2022/07/21 00:14:17;;;;;;;5.47;2.07;;;;;;;22.51;100.00;101331.31;2081358;28;20265;-65
2022/07/21 00:15:20;;;;;;;4.60;2.10;;;;;;;22.54;100.00;101328.28;2081710;28;20217;-65
2022/07/21 00:16:21;;;;;;;5.47;1.80;;;;;;;22.57;100.00;101329.31;2082314;28;20193;-65
2022/07/21 00:17:21;;;;;;;5.90;2.13;;;;;;;22.57;100.00;101334.97;2081989;28;20524;-65
2022/07/21 00:18:22;;;;;;;4.97;2.07;;;;;;;22.56;100.00;101328.53;2082256;28;20215;-65
2022/07/21 00:19:23;;;;;;;3.23;1.80;;;;;;;21.60;100.00;101176.78;2081470;28;20251;-65
2022/07/21 00:20:24;;;;;;;2.87;1.87;;;;;;;22.56;100.00;101324.94;2081612;28;20185;-65
2022/07/21 00:21:26;;;;;;;6.20;2.13;;;;;;;22.41;100.00;101318.59;2074471;28;20610;-65
2022/07/21 00:22:27;;;;;;;5.30;2.37;;;;;;;22.45;100.00;101324.81;2081113;28;20439;-65
2022/07/21 00:23:28;;;;;;;5.10;1.90;;;;;;;22.46;100.00;101335.63;2082179;28;20838;-65
2022/07/21 00:24:28;;;;;;;3.40;1.77;;;;;;;22.48;100.00;101321.78;2077435;28;20502;-65
2022/07/21 00:25:29;;;;;;;5.83;2.00;;;;;;;22.42;100.00;101306.78;2077222;28;20193;-65
2022/07/21 00:26:29;;;;;;;3.90;1.87;;;;;;;22.53;100.00;101323.91;2081680;28;20572;-65
2022/07/21 00:27:30;;;;;;;4.10;1.83;;;;;;;22.12;100.00;101260.28;2081765;28;20260;-65
2022/07/21 00:28:30;;;;;;;5.97;2.17;;;;;;;22.54;100.00;101321.84;2074346;28;20690;-65
2022/07/21 00:29:31;;;;;;;3.93;1.83;;;;;;;22.56;100.00;101322.88;2080504;28;20216;-65
2022/07/21 00:30:33;;;;;;;7.13;1.90;;;;;;;22.57;100.00;101321.59;2081459;28;20586;-65
2022/07/21 00:31:34;;;;;;;6.10;1.87;;;;;;;22.58;100.00;101319.56;2082025;28;20220;-65
2022/07/21 00:32:35;;;;;;;4.60;2.17;;;;;;;22.56;100.00;101322.88;2081622;28;20420;-65
2022/07/21 00:33:35;;;;;;;4.20;1.80;;;;;;;22.58;100.00;101325.22;2082181;28;20643;-65
2022/07/21 00:34:36;;;;;;;4.73;2.40;;;;;;;22.57;100.00;101326.50;2082312;28;20800;-65
2022/07/21 00:35:37;;;;;;;4.30;2.13;;;;;;;22.55;100.00;101323.38;2074881;28;20204;-65
2022/07/21 00:36:37;;;;;;;6.17;2.10;;;;;;;22.52;100.00;101315.91;2079407;28;20220;-65
2022/07/21 00:37:38;;;;;;;5.73;2.10;;;;;;;22.51;100.00;101325.66;2081867;28;20263;-65
2022/07/21 00:38:39;;;;;;;8.90;3.03;;;;;;;21.98;100.00;101254.72;2079128;28;20189;-65
2022/07/21 00:39:39;;;;;;;11.63;3.23;;;;;;;22.48;100.00;101318.19;2076031;28;20425;-65
2022/07/21 00:40:40;;;;;;;9.80;3.30;;;;;;;22.49;100.00;101320.50;2081931;28;20791;-65
2022/07/21 00:41:41;;;;;;;8.13;2.70;;;;;;;22.46;100.00;101317.91;2082357;28;20194;-65
2022/07/21 00:42:42;;;;;;;6.93;2.40;;;;;;;22.47;100.00;101319.47;2080994;28;20200;-65
2022/07/21 00:43:43;;;;;;;9.40;2.30;;;;;;;22.46;100.00;101313.03;2081183;28;20185;-65
2022/07/21 00:44:44;;;;;;;6.40;2.13;;;;;;;22.39;100.00;101302.16;2081816;28;20881;-65
2022/07/21 00:45:44;;;;;;;5.97;1.87;;;;;;;22.33;100.00;101309.78;2081479;28;20180;-65
2022/07/21 00:46:45;;;;;;;3.67;1.80;;;;;;;22.43;100.00;101311.19;2081874;28;20674;-65
2022/07/21 00:47:45;;;;;;;4.63;2.00;;;;;;;22.43;100.00;101318.88;2082231;28;20177;-65
2022/07/21 00:48:46;;;;;;;5.37;2.00;;;;;;;22.39;100.00;101318.31;2081859;28;20733;-65
2022/07/21 00:49:48;;;;;;;4.63;2.10;;;;;;;21.70;100.00;101223.34;2076325;28;20675;-65
2022/07/21 00:50:49;;;;;;;4.83;2.00;;;;;;;22.28;100.00;101313.31;2075800;28;20197;-65
2022/07/21 00:51:49;;;;;;;3.10;1.67;;;;;;;22.18;100.00;101317.56;2078166;28;20881;-65
2022/07/21 00:52:50;;;;;;;6.60;1.87;;;;;;;22.13;100.00;101318.28;2078775;28;20676;-65
2022/07/21 00:53:51;;;;;;;4.73;2.30;;;;;;;22.13;100.00;101321.09;2075778;28;20173;-65
2022/07/21 00:54:52;;;;;;;4.27;2.10;;;;;;;21.92;100.00;101294.16;2081122;28;20431;-65
2022/07/21 00:55:52;;;;;;;3.37;1.90;;;;;;;22.09;100.00;101322.56;2081593;28;20188;-65
2022/07/21 00:56:53;;;;;;;5.17;2.20;;;;;;;22.09;100.00;101320.53;2081851;28;20634;-65
2022/07/21 00:57:54;;;;;;;2.80;2.00;;;;;;;22.07;100.00;101323.09;2082103;28;20193;-65
2022/07/21 00:58:54;;;;;;;3.60;1.87;;;;;;;21.34;100.00;101203.38;2081420;28;20259;-65
2022/07/21 00:59:55;;;;;;;5.23;1.83;;;;;;;22.04;100.00;101318.41;2079072;28;20271;-65
2022/07/21 01:00:56;;;;;;;2.73;1.80;;;;;;;21.20;100.00;101193.72;2073848;28;20181;-65
2022/07/21 01:01:56;;;;;;;6.60;2.10;;;;;;;21.89;100.00;101320.53;2077086;28;20181;-65
2022/07/21 01:02:58;;;;;;;15.57;3.37;;;;;;;21.84;100.00;101320.44;2081833;28;20658;-65
2022/07/21 01:03:58;;;;;;;16.40;3.07;;;;;;;21.85;100.00;101324.84;2081687;28;20613;-65
2022/07/21 01:04:59;;;;;;;7.73;2.40;;;;;;;21.83;100.00;101318.91;2081394;28;20455;-65
2022/07/21 01:05:59;;;;;;;6.03;2.10;;;;;;;21.80;100.00;101323.50;2078232;28;20666;-65
2022/07/21 01:07:01;;;;;;;4.20;2.13;;;;;;;21.81;100.00;101316.56;2076069;28;21014;-65
2022/07/21 01:08:02;;;;;;;8.97;2.40;;;;;;;21.81;100.00;101308.09;2081743;28;20192;-65
2022/07/21 01:09:03;;;;;;;6.13;2.33;;;;;;;21.81;100.00;101316.56;2082243;28;20451;-65
2022/07/21 01:10:04;;;;;;;3.10;1.73;;;;;;;21.51;100.00;101275.63;2081578;28;20189;-65
2022/07/21 01:11:05;;;;;;;7.43;2.27;;;;;;;21.80;100.00;101320.66;2081628;28;20641;-65
2022/07/21 01:12:06;;;;;;;9.27;2.53;;;;;;;20.99;100.00;101202.63;2082215;28;20223;-65
2022/07/21 01:13:06;;;;;;;5.03;2.07;;;;;;;21.73;100.00;101315.47;2081873;28;20339;-65
2022/07/21 01:14:07;;;;;;;5.37;1.83;;;;;;;20.89;100.00;101187.88;2081788;28;20438;-65
2022/07/21 01:15:10;;;;;;;3.80;1.70;;;;;;;21.70;100.00;101321.31;2080176;28;20276;-65
2022/07/21 01:16:10;;;;;;;5.07;1.77;;;;;;;21.64;100.00;101314.78;2073632;28;20263;-65
2022/07/21 01:17:11;;;;;;;5.50;2.10;;;;;;;20.99;100.00;101211.81;2081635;28;20467;-65
2022/07/21 01:18:12;;;;;;;3.83;1.90;;;;;;;21.57;100.00;101315.97;2081779;28;20207;-65
2022/07/21 01:19:12;;;;;;;5.90;1.90;;;;;;;21.51;100.00;101323.59;2082026;28;20223;-65
2022/07/21 01:20:16;;;;;;;2.80;1.70;;;;;;;21.56;100.00;101322.88;2081071;28;20637;-65
2022/07/21 01:21:28;;;;;;;3.40;1.97;;;;;;;21.56;100.00;101320.06;2081658;28;20554;-65
2022/07/21 01:22:30;;;;;;;4.07;1.90;;;;;;;21.57;100.00;101318.00;2078855;28;20434;-65
2022/07/21 01:23:31;;;;;;;4.73;1.90;;;;;;;21.58;100.00;101320.34;2073733;28;20419;-65
2022/07/21 01:24:32;;;;;;;4.83;1.87;;;;;;;21.14;100.00;101268.16;2073720;28;20920;-65
2022/07/21 01:25:33;;;;;;;7.23;1.63;;;;;;;21.54;100.00;101316.94;2082034;28;20180;-65
2022/07/21 01:26:41;;;;;;;9.13;2.10;;;;;;;21.51;100.00;101320.75;2080896;28;20200;-65
2022/07/21 01:27:42;;;;;;;4.03;1.93;;;;;;;21.50;100.00;101327.66;2081052;28;20331;-65
2022/07/21 01:28:42;;;;;;;4.60;2.07;;;;;;;21.50;100.00;101321.25;2081971;28;20949;-65
2022/07/21 01:29:43;;;;;;;5.43;1.90;;;;;;;21.40;100.00;101317.00;2081473;28;20201;-65
2022/07/21 01:30:43;;;;;;;4.33;1.90;;;;;;;21.29;100.00;101320.41;2081070;28;20191;-65
2022/07/21 01:31:47;;;;;;;4.63;2.03;;;;;;;21.30;100.00;101330.44;2081740;28;20654;-64
2022/07/21 01:32:47;;;;;;;6.67;2.10;;;;;;;21.35;100.00;101331.78;2081828;28;20712;-64
2022/07/21 01:33:48;;;;;;;5.10;1.93;;;;;;;21.38;100.00;101337.22;2081947;28;20816;-65
2022/07/21 01:34:49;;;;;;;3.57;2.20;;;;;;;21.41;100.00;101321.38;2074484;28;20334;-65
2022/07/21 01:35:50;;;;;;;3.53;1.80;;;;;;;21.42;100.00;101320.88;2079558;28;20193;-65
2022/07/21 01:36:50;;;;;;;3.73;1.93;;;;;;;21.50;100.00;101330.47;2081123;28;20463;-65
2022/07/21 01:37:51;;;;;;;5.03;1.80;;;;;;;21.50;100.00;101333.28;2077768;28;20201;-65
2022/07/21 01:41:34;;;;;;;4.90;2.10;;;;;;;21.46;100.00;101329.91;2081301;28;20815;-64
2022/07/21 01:42:35;;;;;;;6.47;2.10;;;;;;;21.46;100.00;101329.91;2078602;28;20525;-65
2022/07/21 01:43:35;;;;;;;4.23;1.63;;;;;;;21.50;100.00;101332.53;2074351;28;20416;-65
2022/07/21 01:44:36;;;;;;;6.83;1.80;;;;;;;21.49;100.00;101331.75;2081383;28;20250;-65
2022/07/21 01:45:36;;;;;;;9.80;2.30;;;;;;;21.53;100.00;101326.69;2073834;28;20182;-65
2022/07/21 01:46:45;;;;;;;14.00;3.03;;;;;;;21.57;100.00;101332.09;2079424;28;20193;-65
2022/07/21 01:47:46;;;;;;;10.93;3.17;;;;;;;21.61;100.00;101332.69;2081085;28;20184;-65
2022/07/21 01:48:46;;;;;;;6.07;2.20;;;;;;;21.56;100.00;101331.34;2081261;28;20451;-65
2022/07/21 01:49:47;;;;;;;4.80;2.00;;;;;;;21.57;100.00;101326.47;2080715;28;20720;-65
2022/07/21 01:50:48;;;;;;;6.07;2.13;;;;;;;21.57;100.00;101330.06;2080458;28;20655;-65
2022/07/21 01:51:49;;;;;;;6.63;2.27;;;;;;;21.63;100.00;101332.97;2073592;28;20179;-65
2022/07/21 01:52:50;;;;;;;8.87;2.03;;;;;;;21.63;100.00;101330.94;2081913;28;20170;-65
2022/07/21 01:53:51;;;;;;;5.00;2.10;;;;;;;21.54;100.00;101321.81;2081965;28;20433;-65
2022/07/21 01:54:52;;;;;;;5.80;2.10;;;;;;;21.68;100.00;101329.44;2075387;28;20270;-65
2022/07/21 01:55:52;;;;;;;4.70;1.97;;;;;;;21.54;100.00;101314.13;2073374;28;20458;-65
2022/07/21 01:56:53;;;;;;;7.57;2.30;;;;;;;21.71;100.00;101331.31;2073055;28;20216;-65
2022/07/21 01:57:53;;;;;;;5.33;2.10;;;;;;;21.72;100.00;101333.66;2073488;28;20263;-65
2022/07/21 01:58:56;;;;;;;4.20;1.87;;;;;;;21.41;100.00;101305.25;2073311;28;20180;-65
2022/07/21 01:59:57;;;;;;;4.90;2.20;;;;;;;21.74;100.00;101336.75;2073648;28;20178;-65
2022/07/21 02:00:57;;;;;;;4.33;2.10;;;;;;;21.76;100.00;101336.25;2080108;28;20456;-65
2022/07/21 02:01:58;;;;;;;4.87;2.27;;;;;;;21.75;100.00;101338.28;2079173;28;20192;-65
2022/07/21 02:02:58;;;;;;;7.13;2.27;;;;;;;21.71;100.00;101329.28;2081623;28;20264;-65
2022/07/21 02:04:01;;;;;;;8.03;2.70;;;;;;;21.76;100.00;101334.22;2080292;28;20194;-65
2022/07/21 02:05:02;;;;;;;14.33;2.90;;;;;;;21.76;100.00;101337.06;2079219;28;20192;-65
2022/07/21 02:06:04;;;;;;;13.20;3.50;;;;;;;21.78;100.00;101331.69;2073492;28;20960;-65
2022/07/21 02:07:05;;;;;;;19.60;4.30;;;;;;;21.80;100.00;101334.78;2073378;28;20573;-65
2022/07/21 02:08:05;;;;;;;25.63;4.93;;;;;;;21.68;100.00;101313.34;2079459;28;20823;-65
2022/07/21 02:09:08;;;;;;;26.90;4.63;;;;;;;21.81;100.00;101336.31;2076358;28;20270;-65
2022/07/21 02:10:09;;;;;;;27.30;5.70;;;;;;;21.76;100.00;101327.81;2073331;28;20692;-65
2022/07/21 02:11:11;;;;;;;29.60;5.27;;;;;;;21.75;100.00;101318.53;2073627;28;20439;-65
2022/07/21 02:12:12;;;;;;;15.37;3.90;;;;;;;21.33;100.00;101249.75;2073319;28;20438;-65
2022/07/21 02:13:12;;;;;;;17.17;4.07;;;;;;;21.78;100.00;101316.78;2072254;28;20486;-65
2022/07/21 02:14:13;;;;;;;13.37;3.30;;;;;;;21.83;100.00;101322.50;2078124;28;20270;-65
2022/07/21 02:15:14;;;;;;;20.67;3.97;;;;;;;21.84;100.00;101318.41;2080331;28;20214;-65
2022/07/21 02:16:15;;;;;;;17.90;4.00;;;;;;;21.12;100.00;101211.50;2081229;28;20184;-65
2022/07/21 02:17:15;;;;;;;24.13;4.10;;;;;;;21.50;100.00;101268.44;2075760;28;20331;-65
2022/07/21 02:18:16;;;;;;;15.77;3.63;;;;;;;21.48;100.00;101265.34;2076489;28;20344;-65
2022/07/21 02:19:16;;;;;;;16.30;3.20;;;;;;;21.87;100.00;101327.94;2080400;28;20196;-65
2022/07/21 02:20:17;;;;;;;13.43;2.67;;;;;;;21.85;100.00;101324.84;2081068;28;20173;-65
2022/07/21 02:21:18;;;;;;;10.20;2.80;;;;;;;21.84;100.00;101337.38;2081656;28;20181;-65
2022/07/21 02:22:18;;;;;;;13.07;2.60;;;;;;;21.85;100.00;101322.78;2081296;28;20196;-65
2022/07/21 02:23:19;;;;;;;10.70;3.20;;;;;;;21.12;100.00;101203.03;2081427;28;20197;-65
2022/07/21 02:24:20;;;;;;;12.60;3.17;;;;;;;21.81;100.00;101315.81;2075676;28;20251;-65
2022/07/21 02:25:20;;;;;;;15.40;3.27;;;;;;;21.82;100.00;101323.78;2076699;28;20197;-65
2022/07/21 02:26:21;;;;;;;14.07;3.40;;;;;;;21.79;100.00;101321.94;2081145;28;20712;-65
2022/07/21 02:27:21;;;;;;;10.53;3.00;;;;;;;21.72;100.00;101311.09;2079526;28;20608;-65
2022/07/21 02:28:22;;;;;;;7.23;2.60;;;;;;;21.68;100.00;101307.69;2073260;28;20204;-65
2022/07/21 02:29:23;;;;;;;9.30;2.97;;;;;;;21.76;100.00;101324.97;2080533;28;20266;-65
2022/07/21 02:30:23;;;;;;;21.10;3.80;;;;;;;21.75;100.00;101321.38;2074819;28;20279;-65
2022/07/21 02:31:24;;;;;;;18.53;3.83;;;;;;;21.72;100.00;101322.38;2078636;28;20613;-65
2022/07/21 02:32:24;;;;;;;21.37;4.40;;;;;;;21.71;100.00;101320.81;2081331;28;20657;-65
2022/07/21 02:33:25;;;;;;;16.23;4.20;;;;;;;21.70;100.00;101318.50;2080880;28;20213;-65
2022/07/21 02:34:25;;;;;;;16.50;3.47;;;;;;;21.67;100.00;101322.25;2080418;28;20180;-65
2022/07/21 02:35:26;;;;;;;15.80;3.17;;;;;;;21.66;100.00;101324.31;2081307;28;20211;-65
2022/07/21 02:36:26;;;;;;;13.87;2.87;;;;;;;21.65;100.00;101328.38;2073170;28;20200;-65
2022/07/21 02:37:28;;;;;;;13.47;3.17;;;;;;;21.04;100.00;101250.59;2072615;28;20299;-65
2022/07/21 02:38:29;;;;;;;14.83;3.50;;;;;;;21.57;100.00;101335.72;2073137;28;20218;-65
2022/07/21 02:39:29;;;;;;;15.70;3.17;;;;;;;21.20;100.00;101288.75;2073249;28;20434;-65
2022/07/21 02:40:30;;;;;;;16.10;3.20;;;;;;;21.52;100.00;101335.63;2075914;28;20253;-65
2022/07/21 02:41:31;;;;;;;14.53;3.27;;;;;;;21.50;100.00;101333.28;2080485;28;20188;-65
2022/07/21 02:42:31;;;;;;;10.67;3.30;;;;;;;21.48;100.00;101333.00;2080716;28;20414;-65
2022/07/21 02:43:32;;;;;;;14.47;3.10;;;;;;;21.49;100.00;101330.97;2073189;28;20178;-65
2022/07/21 02:44:33;;;;;;;7.90;2.57;;;;;;;21.51;100.00;101337.69;2080153;28;20287;-65
2022/07/21 02:45:33;;;;;;;8.83;2.57;;;;;;;21.50;100.00;101336.09;2073768;28;20235;-65
2022/07/21 02:46:34;;;;;;;10.77;2.80;;;;;;;21.48;100.00;101332.22;2073285;28;20191;-65
2022/07/21 02:47:54;;;;;;;9.97;2.60;;;;;;;21.47;100.00;101327.84;2076074;28;20203;-65
2022/07/21 02:48:55;;;;;;;10.73;2.87;;;;;;;20.56;100.00;101192.94;2075135;28;20202;-65
2022/07/21 02:49:55;;;;;;;8.70;2.93;;;;;;;21.46;100.00;101326.31;2076685;28;20440;-65
2022/07/21 02:50:56;;;;;;;11.77;2.87;;;;;;;21.44;100.00;101326.03;2075852;28;20253;-65
2022/07/21 02:51:56;;;;;;;10.83;3.03;;;;;;;21.50;100.00;101335.34;2080855;28;20180;-65
2022/07/21 02:52:59;;;;;;;11.53;3.30;;;;;;;21.48;100.00;101335.84;2081462;28;20230;-65
2022/07/21 02:53:59;;;;;;;16.63;3.77;;;;;;;21.46;100.00;101334.78;2080791;28;20569;-65
2022/07/21 02:55:00;;;;;;;13.50;3.60;;;;;;;21.44;100.00;101331.69;2080446;28;20474;-65
2022/07/21 02:56:00;;;;;;;15.43;3.77;;;;;;;21.40;100.00;101325.47;2076169;28;20708;-65
2022/07/21 02:57:00;;;;;;;14.10;3.33;;;;;;;21.43;100.00;101333.72;2072768;28;20239;-65
2022/07/21 02:58:12;;;;;;;13.90;3.00;;;;;;;21.33;100.00;101321.00;2072847;28;20197;-65
2022/07/21 02:59:12;;;;;;;9.00;3.00;;;;;;;21.44;100.00;101326.03;2073215;28;20238;-65
2022/07/21 03:00:13;;;;;;;10.23;3.10;;;;;;;21.40;100.00;101325.47;2072978;28;20430;-65
2022/07/21 03:01:14;;;;;;;11.47;2.83;;;;;;;21.37;100.00;101321.56;2073183;28;20553;-65
2022/07/21 03:02:14;;;;;;;10.10;3.00;;;;;;;21.45;100.00;101330.41;2081395;28;20469;-65
2022/07/21 03:03:15;;;;;;;13.40;3.30;;;;;;;21.46;100.00;101326.31;2080606;28;20613;-65
2022/07/21 03:04:16;;;;;;;13.53;3.20;;;;;;;21.18;100.00;101285.66;2080304;28;20188;-65
2022/07/21 03:05:16;;;;;;;13.70;3.30;;;;;;;21.49;100.00;101328.16;2080552;28;20477;-65
2022/07/21 03:06:17;;;;;;;12.47;3.67;;;;;;;21.50;100.00;101333.28;2078913;28;20271;-65
2022/07/21 03:07:17;;;;;;;16.93;3.93;;;;;;;20.53;100.00;101179.06;2075880;28;20227;-65
2022/07/21 03:08:19;;;;;;;18.93;3.47;;;;;;;21.54;100.00;101338.75;2081328;28;20270;-65
2022/07/21 03:09:19;;;;;;;17.33;3.77;;;;;;;21.54;100.00;101336.69;2080876;28;20199;-65
2022/07/21 03:10:20;;;;;;;18.30;3.97;;;;;;;21.56;100.00;101331.34;2074594;28;20482;-65
2022/07/21 03:11:21;;;;;;;14.20;3.53;;;;;;;21.46;100.00;101320.66;2078579;28;20325;-65
2022/07/21 03:12:21;;;;;;;11.40;3.20;;;;;;;21.58;100.00;101331.63;2077140;28;20200;-65
2022/07/21 03:13:22;;;;;;;17.23;3.80;;;;;;;21.60;100.00;101340.34;2072759;28;20188;-65
2022/07/21 03:14:23;;;;;;;11.97;3.30;;;;;;;21.62;100.00;101335.03;2077771;28;20189;-65
2022/07/21 03:15:23;;;;;;;15.67;3.37;;;;;;;21.64;100.00;101337.34;2072784;28;20185;-65
2022/07/21 03:16:25;;;;;;;14.83;3.27;;;;;;;21.54;100.00;101319.00;2073193;28;20247;-65
2022/07/21 03:17:25;;;;;;;16.60;4.10;;;;;;;21.68;100.00;101341.53;2079953;28;20208;-65
2022/07/21 03:18:25;;;;;;;12.33;3.67;;;;;;;21.72;100.00;101349.78;2080795;28;20443;-65
2022/07/21 03:19:26;;;;;;;13.97;3.27;;;;;;;21.70;100.00;101347.47;2076835;28;20251;-65
2022/07/21 03:20:29;;;;;;;11.93;3.20;;;;;;;21.70;100.00;101344.63;2076107;28;20196;-65
2022/07/21 03:21:29;;;;;;;12.80;3.37;;;;;;;21.72;100.00;101344.16;2080772;28;20710;-65
2022/07/21 03:22:30;;;;;;;15.93;3.63;;;;;;;21.73;100.00;101348.53;2080438;28;20862;-65
2022/07/21 03:23:30;;;;;;;19.80;3.77;;;;;;;21.66;100.00;101332.00;2081190;28;20173;-65
2022/07/21 03:24:31;;;;;;;13.23;3.40;;;;;;;21.45;100.00;101310.66;2080810;28;20710;-65
2022/07/21 03:25:32;;;;;;;13.80;4.27;;;;;;;21.74;100.00;101342.41;2080812;28;20236;-65
2022/07/21 03:26:32;;;;;;;14.50;3.27;;;;;;;21.75;100.00;101341.13;2085509;28;20200;-65
2022/07/21 03:27:36;;;;;;;13.53;3.17;;;;;;;21.76;100.00;101339.88;2085011;28;20509;-65
2022/07/21 03:28:36;;;;;;;13.07;3.23;;;;;;;21.57;100.00;101306.72;2080918;28;20235;-65
2022/07/21 03:29:36;;;;;;;12.63;3.40;;;;;;;21.76;100.00;101344.72;2080979;28;20558;-65
2022/07/21 03:30:37;;;;;;;16.40;3.20;;;;;;;21.74;100.00;101339.56;2081252;28;20200;-65
2022/07/21 03:31:37;;;;;;;12.90;3.40;;;;;;;21.05;100.00;101228.81;2080985;28;20193;-65
2022/07/21 03:32:38;;;;;;;12.70;3.27;;;;;;;21.76;100.00;101336.25;2080661;28;20216;-65
2022/07/21 03:33:39;;;;;;;15.53;3.50;;;;;;;21.68;100.00;101332.25;2085395;28;20283;-65
2022/07/21 03:34:39;;;;;;;16.00;3.90;;;;;;;21.74;100.00;101338.81;2085053;28;20253;-65
2022/07/21 03:35:40;;;;;;;11.63;3.40;;;;;;;21.74;100.00;101338.81;2080732;28;20550;-65
2022/07/21 03:36:40;;;;;;;11.33;3.27;;;;;;;21.73;100.00;101340.84;2080223;28;20287;-65
2022/07/21 03:37:52;;;;;;;16.93;3.43;;;;;;;21.70;100.00;101341.81;2080839;28;20608;-65
2022/07/21 03:38:53;;;;;;;12.30;2.97;;;;;;;21.71;100.00;101340.56;2072973;28;20169;-65
2022/07/21 03:39:53;;;;;;;11.57;3.20;;;;;;;20.97;100.00;101230.50;2080777;28;20429;-65
2022/07/21 03:40:54;;;;;;;11.67;3.53;;;;;;;21.74;100.00;101345.22;2075086;28;20185;-65
2022/07/21 03:41:55;;;;;;;7.60;2.63;;;;;;;21.69;100.00;101333.88;2078811;28;20268;-65
2022/07/21 03:42:57;;;;;;;10.77;3.10;;;;;;;21.74;100.00;101336.00;2079552;28;20255;-65
2022/07/21 03:43:58;;;;;;;16.70;3.47;;;;;;;21.74;100.00;101341.63;2074187;28;20173;-65
2022/07/21 03:44:58;;;;;;;9.63;3.33;;;;;;;21.78;100.00;101337.31;2075167;28;20496;-65
2022/07/21 03:45:59;;;;;;;11.90;3.17;;;;;;;21.64;100.00;101323.25;2082951;28;20689;-65
2022/07/21 03:46:59;;;;;;;10.50;3.27;;;;;;;21.80;100.00;101340.41;2082275;28;20224;-65
2022/07/21 03:48:01;;;;;;;10.60;3.37;;;;;;;21.83;100.00;101345.09;2082640;28;20243;-65
2022/07/21 03:49:02;;;;;;;15.17;3.80;;;;;;;21.55;100.00;101301.56;2082241;28;20295;-65
2022/07/21 03:50:04;;;;;;;11.10;3.70;;;;;;;21.79;100.00;101344.50;2082517;28;20431;-65
2022/07/21 03:51:04;;;;;;;12.07;3.80;;;;;;;21.84;100.00;101345.84;2082192;28;20216;-65
2022/07/21 03:52:05;;;;;;;15.50;3.77;;;;;;;21.85;100.00;101351.00;2082513;28;20416;-65
2022/07/21 03:53:06;;;;;;;14.70;3.77;;;;;;;21.90;100.00;101353.13;2082556;28;20261;-65
2022/07/21 03:54:07;;;;;;;13.17;3.77;;;;;;;21.93;100.00;101354.19;2074429;28;20659;-65
2022/07/21 03:55:08;;;;;;;10.77;3.53;;;;;;;21.94;100.00;101341.63;2086701;28;20847;-65
2022/07/21 03:56:08;;;;;;;15.63;4.17;;;;;;;21.18;100.00;101230.06;2079709;28;20220;-65
2022/07/21 03:57:09;;;;;;;13.93;3.63;;;;;;;21.96;100.00;101353.22;2077894;28;20223;-65
2022/07/21 03:58:09;;;;;;;16.47;4.37;;;;;;;21.81;100.00;101310.16;2079865;28;20197;-65
2022/07/21 03:59:10;;;;;;;9.10;3.27;;;;;;;22.05;100.00;101345.38;2075539;28;20263;-65
2022/07/21 04:00:14;;;;;;;13.37;3.70;;;;;;;21.65;100.00;101280.44;2082529;28;20201;-65
2022/07/21 04:01:14;;;;;;;14.50;3.50;;;;;;;22.10;100.00;101349.56;2074536;28;20656;-65
2022/07/21 04:02:15;;;;;;;12.30;3.27;;;;;;;22.08;100.00;101343.59;2074356;28;20596;-65
2022/07/21 04:03:15;;;;;;;12.53;3.43;;;;;;;22.13;100.00;101349.34;2079702;28;20279;-65
2022/07/21 04:04:16;;;;;;;12.10;3.27;;;;;;;22.16;100.00;101348.31;2078243;28;20217;-65
2022/07/21 04:05:18;;;;;;;13.77;4.10;;;;;;;21.35;100.00;101213.38;2074095;28;20185;-65
2022/07/21 04:06:18;;;;;;;16.83;3.80;;;;;;;22.10;100.00;101324.91;2074198;28;20722;-65
2022/07/21 04:07:19;;;;;;;17.23;4.10;;;;;;;22.23;100.00;101347.91;2074244;28;20834;-65
2022/07/21 04:08:19;;;;;;;12.33;3.10;;;;;;;22.25;100.00;101347.41;2081779;28;20201;-65
2022/07/21 04:09:20;;;;;;;12.13;3.17;;;;;;;21.93;100.00;101294.94;2082341;28;20702;-65
2022/07/21 04:10:27;;;;;;;11.73;2.80;;;;;;;22.31;100.00;101351.09;2077330;28;20205;-65
2022/07/21 04:11:29;;;;;;;10.47;3.27;;;;;;;21.98;100.00;101303.47;2079140;28;20192;-65
2022/07/21 04:12:29;;;;;;;10.37;3.37;;;;;;;22.33;100.00;101357.00;2082171;28;20454;-65
2022/07/21 04:13:30;;;;;;;11.37;4.33;;;;;;;22.33;100.00;101354.19;2079596;28;20440;-65
2022/07/21 04:14:30;;;;;;;10.23;4.67;;;;;;;21.83;100.00;101268.13;2080724;28;20192;-65
2022/07/21 04:15:31;;;;;;;11.83;4.73;;;;;;;22.41;100.00;101350.41;2081192;28;20260;-65
2022/07/21 04:16:32;;;;;;;8.70;3.47;;;;;;;22.25;100.00;101331.25;2082606;28;20192;-65
2022/07/21 04:17:33;;;;;;;11.00;3.30;;;;;;;22.44;100.00;101357.13;2081293;28;20506;-65
2022/07/21 04:18:33;;;;;;;8.80;3.17;;;;;;;22.44;100.00;101360.78;2081825;28;20212;-65
2022/07/21 04:19:34;;;;;;;7.53;2.93;;;;;;;22.45;100.00;101355.88;2076846;28;20446;-65
2022/07/21 04:20:35;;;;;;;9.23;2.40;;;;;;;22.33;100.00;101337.25;2078069;28;20246;-65
2022/07/21 04:21:35;;;;;;;7.50;2.50;;;;;;;22.43;100.00;101356.38;2081385;28;21004;-65
2022/07/21 04:22:36;;;;;;;4.17;2.30;;;;;;;22.12;100.00;101311.09;2080291;28;20415;-65
2022/07/21 04:23:37;;;;;;;6.03;2.40;;;;;;;22.50;100.00;101358.00;2073630;28;20555;-65
2022/07/21 04:24:37;;;;;;;8.63;2.57;;;;;;;22.45;100.00;101350.22;2080915;28;20303;-66
2022/07/21 04:25:38;;;;;;;8.37;2.77;;;;;;;22.05;100.00;101277.63;2080661;28;20200;-65
2022/07/21 04:26:39;;;;;;;9.23;2.50;;;;;;;22.62;100.00;101362.50;2080782;28;20227;-66
2022/07/21 04:27:40;;;;;;;10.17;3.27;;;;;;;22.31;100.00;101311.56;2080350;28;20471;-65
2022/07/21 04:28:41;;;;;;;10.60;3.40;;;;;;;22.31;100.00;101309.50;2080747;28;20204;-66
2022/07/21 04:29:41;;;;;;;9.17;3.93;;;;;;;22.69;100.00;101354.38;2080680;28;20184;-65
2022/07/21 04:30:42;;;;;;;13.17;4.97;;;;;;;22.74;100.00;101364.16;2081010;28;20562;-65
2022/07/21 04:31:42;;;;;;;11.67;4.47;;;;;;;22.77;100.00;101363.19;2081878;28;20228;-65
2022/07/21 04:32:43;;;;;;;11.40;3.70;;;;;;;22.65;100.00;101350.97;2081005;28;20204;-65
2022/07/21 04:33:43;;;;;;;12.03;3.87;;;;;;;22.85;100.00;101367.09;2079627;28;20568;-65
2022/07/21 04:34:44;;;;;;;11.93;4.10;;;;;;;22.90;100.00;101372.81;2079559;28;20686;-66
2022/07/21 04:35:44;;;;;;;12.33;3.50;;;;;;;22.92;100.00;101373.06;2079396;28;20200;-66
2022/07/21 04:36:45;;;;;;;13.93;3.63;;;;;;;22.59;100.00;101312.63;2080572;28;20242;-66
2022/07/21 04:37:45;;;;;;;13.37;3.83;;;;;;;23.03;100.00;101361.09;2076865;28;20197;-65
2022/07/21 04:38:48;;;;;;;13.77;4.00;;;;;;;22.83;100.00;101330.84;2079345;28;20215;-65
2022/07/21 04:39:49;;;;;;;9.63;3.73;;;;;;;23.08;100.00;101363.22;2079439;28;20212;-65
2022/07/21 04:40:49;;;;;;;11.30;4.03;;;;;;;23.13;100.00;101370.97;2079784;28;20427;-65
2022/07/21 04:41:50;;;;;;;14.67;3.70;;;;;;;22.84;100.00;101321.13;2072496;28;20312;-65